RJCW/WKJ METAR and TAF weather

Enter ICAO airport designator
Station Type Date Time Source
RJCW METAR 2020/07/05 09:00 UTC NOAA

RJCW 050900Z 21017KT 9999 FEW010 BKN/// 20/16 Q1002


Station Type Date Time Source
RJCW Decoded METAR 2020/07/05 09:00 UTC NOAA

Wakkanai Airport, Japan (RJCW) 45-24N 141-48E 11M
Jul 05, 2020 - 05:00 AM EDT / 2020.07.05 0900 UTC
Wind: from the SSW (210 degrees) at 20 MPH (17 KT):0
Visibility: greater than 7 mile(s):0
Sky conditions: mostly cloudy
Temperature: 68 F (20 C)
Dew Point: 60 F (16 C)
Relative Humidity: 77%
Pressure (altimeter): 29.59 in. Hg (1002 hPa)
ob: RJCW 050900Z 21017KT 9999 FEW010 BKN/// 20/16 Q1002
cycle: 9

Station Type Date Time Source
RJCW TAF UTC NOAA

Error!

Example: see airport list